Time;durP1;ratioP1;P1;durP2;ratioP2;P2;SDS_P1;SDS_P2;PMS_P1;PMS_P2;Temp;Humidity;BMP_temperature;BMP_pressure;BME280_temperature;BME280_humidity;BME280_pressure;Samples;Min_cycle;Max_cycle;Signal;HPM_P1;HPM_P2
2021/10/12 00:01:55;;;;;;;;;;;;;;;13.63;nan;100120.84;5072888;28;19924;-79
2021/10/12 00:04:22;;;;;;;;;;;;;;;13.46;nan;100124.63;5058760;28;19951;-79
2021/10/12 00:06:50;;;;;;;;;;;;;;;13.50;nan;100122.56;5051558;28;19925;-79
2021/10/12 00:09:18;;;;;;;;;;;;;;;13.77;nan;100124.25;5071104;28;20330;-79
2021/10/12 00:11:45;;;;;;;;;;;;;;;13.95;nan;100121.25;5051615;28;19925;-79
2021/10/12 00:14:12;;;;;;;;;;;;;;;13.89;nan;100122.91;5034872;28;19924;-79
2021/10/12 00:16:40;;;;;;;;;;;;;;;13.92;nan;100122.06;5072075;28;19933;-79
2021/10/12 00:19:07;;;;;;;;;;;;;;;13.58;nan;100115.69;5072713;28;19925;-79
2021/10/12 00:21:35;;;;;;;;;;;;;;;13.62;nan;100119.22;5072532;28;19924;-79
2021/10/12 00:24:03;;;;;;;;;;;;;;;13.90;nan;100108.44;5072771;28;19928;-79
2021/10/12 00:26:31;;;;;;;;;;;;;;;13.82;nan;100100.53;5072717;28;19931;-79
2021/10/12 00:28:58;;;;;;;;;;;;;;;14.07;nan;100089.78;5054765;28;19924;-79
2021/10/12 00:31:27;;;;;;;;;;;;;;;13.79;nan;100095.75;5072797;28;19931;-79
2021/10/12 00:33:56;;;;;;;;;;;;;;;13.80;nan;100102.97;5072492;28;20448;-79
2021/10/12 00:36:23;;;;;;;;;;;;;;;13.93;nan;100106.81;5051260;28;19931;-79
2021/10/12 00:38:50;;;;;;;;;;;;;;;13.94;nan;100111.22;5062193;28;19925;-79
2021/10/12 00:41:18;;;;;;;;;;;;;;;14.07;nan;100107.41;5036289;28;19925;-79
2021/10/12 00:43:46;;;;;;;;;;;;;;;13.57;nan;100108.47;5038273;28;19929;-79
2021/10/12 00:46:13;;;;;;;;;;;;;;;13.85;nan;100116.53;5054575;28;20390;-79
2021/10/12 00:48:41;;;;;;;;;;;;;;;14.03;nan;100105.88;5072145;28;19925;-79
2021/10/12 00:51:10;;;;;;;;;;;;;;;14.20;nan;100116.09;5072366;28;19978;-79
2021/10/12 00:53:38;;;;;;;;;;;;;;;14.21;nan;100112.03;5072115;28;19924;-79
2021/10/12 00:56:08;;;;;;;;;;;;;;;14.43;nan;100107.75;5054597;28;19924;-79
2021/10/12 00:58:35;;;;;;;;;;;;;;;13.98;nan;100106.38;5072013;28;19928;-79
2021/10/12 01:01:02;;;;;;;;;;;;;;;14.19;nan;100104.03;5072161;28;19925;-79
2021/10/12 01:03:30;;;;;;;;;;;;;;;14.22;nan;100105.22;5072225;28;19924;-79
2021/10/12 01:05:57;;;;;;;;;;;;;;;14.05;nan;100092.19;5053925;28;19925;-79
2021/10/12 01:08:25;;;;;;;;;;;;;;;14.16;nan;100090.81;5072266;28;20375;-79
2021/10/12 01:10:52;;;;;;;;;;;;;;;13.88;nan;100104.47;5054126;28;19932;-79
2021/10/12 01:13:19;;;;;;;;;;;;;;;14.38;nan;100094.16;5072263;28;19950;-79
2021/10/12 01:15:46;;;;;;;;;;;;;;;14.46;nan;100090.03;5071962;28;19929;-79
2021/10/12 01:18:14;;;;;;;;;;;;;;;14.54;nan;100080.25;5054404;28;19947;-79
2021/10/12 01:20:41;;;;;;;;;;;;;;;14.26;nan;100092.75;5071758;28;19931;-79
2021/10/12 01:23:09;;;;;;;;;;;;;;;14.36;nan;100099.41;5054257;28;19925;-79
2021/10/12 01:26:02;;;;;;;;;;;;;;;14.28;nan;100095.13;5072024;28;19965;-79
2021/10/12 01:28:29;;;;;;;;;;;;;;;14.36;nan;100085.34;5061668;28;19924;-79
2021/10/12 01:30:56;;;;;;;;;;;;;;;14.32;nan;100087.41;5075711;28;20307;-79
2021/10/12 01:33:24;;;;;;;;;;;;;;;14.27;nan;100093.50;5058036;28;19981;-79
2021/10/12 01:36:10;;;;;;;;;;;;;;;13.58;nan;100113.66;5060514;28;19928;-79
2021/10/12 01:38:37;;;;;;;;;;;;;;;14.34;nan;100113.09;5054388;28;19925;-79
2021/10/12 01:41:05;;;;;;;;;;;;;;;13.97;nan;100101.94;5069730;28;19935;-79
2021/10/12 01:43:32;;;;;;;;;;;;;;;14.33;nan;100103.06;5075724;28;19924;-79
2021/10/12 01:46:01;;;;;;;;;;;;;;;14.40;nan;100094.53;5075484;28;20333;-79
2021/10/12 01:48:29;;;;;;;;;;;;;;;14.46;nan;100109.72;5074974;28;19928;-79
2021/10/12 01:50:56;;;;;;;;;;;;;;;14.52;nan;100105.19;5075546;28;20299;-79
2021/10/12 01:53:24;;;;;;;;;;;;;;;14.45;nan;100116.53;5054173;28;19931;-79
2021/10/12 01:55:51;;;;;;;;;;;;;;;15.04;nan;100097.09;5065164;28;19935;-79
2021/10/12 01:58:18;;;;;;;;;;;;;;;15.24;nan;100086.66;5039510;28;19925;-79
2021/10/12 02:00:45;;;;;;;;;;;;;;;14.99;nan;100072.25;5075355;28;19924;-79
2021/10/12 02:03:12;;;;;;;;;;;;;;;15.24;nan;100067.75;5074942;28;19924;-79
2021/10/12 02:05:42;;;;;;;;;;;;;;;15.15;nan;100064.72;5075045;28;20428;-79
2021/10/12 02:08:09;;;;;;;;;;;;;;;14.93;nan;100069.16;5057346;28;19930;-79
2021/10/12 02:10:36;;;;;;;;;;;;;;;14.82;nan;100071.34;5057187;28;19930;-79
2021/10/12 02:13:03;;;;;;;;;;;;;;;14.97;nan;100064.25;5057480;28;19924;-79
2021/10/12 02:15:31;;;;;;;;;;;;;;;15.02;nan;100054.50;5075140;28;20379;-79
2021/10/12 02:17:58;;;;;;;;;;;;;;;15.01;nan;100047.31;5074804;28;19924;-79
2021/10/12 02:20:25;;;;;;;;;;;;;;;14.82;nan;100051.66;5074865;28;19928;-79
2021/10/12 02:22:53;;;;;;;;;;;;;;;14.87;nan;100054.00;5074174;28;20311;-79
2021/10/12 02:25:20;;;;;;;;;;;;;;;14.60;nan;100061.66;5074406;28;19932;-79
2021/10/12 02:27:47;;;;;;;;;;;;;;;14.68;nan;100057.50;5074206;28;19924;-79
2021/10/12 02:30:14;;;;;;;;;;;;;;;14.85;nan;100059.22;5056021;28;20287;-80
2021/10/12 02:32:41;;;;;;;;;;;;;;;14.92;nan;100056.28;5073814;28;20430;-79
2021/10/12 02:35:08;;;;;;;;;;;;;;;14.76;nan;100049.75;5079057;28;19924;-80
2021/10/12 02:37:35;;;;;;;;;;;;;;;14.51;nan;100046.56;5074099;28;19928;-80
2021/10/12 02:40:03;;;;;;;;;;;;;;;14.52;nan;100054.56;5053859;28;20393;-80
2021/10/12 02:42:30;;;;;;;;;;;;;;;14.61;nan;100057.66;5074070;28;19924;-80
2021/10/12 02:44:57;;;;;;;;;;;;;;;14.82;nan;100043.22;5070972;28;19925;-80
2021/10/12 02:47:24;;;;;;;;;;;;;;;14.47;nan;100046.63;5073792;28;19924;-80
2021/10/12 02:49:51;;;;;;;;;;;;;;;14.61;nan;100052.03;5071375;28;19924;-79
2021/10/12 02:52:18;;;;;;;;;;;;;;;15.11;nan;100047.09;5067669;28;19925;-79
2021/10/12 02:54:46;;;;;;;;;;;;;;;14.92;nan;100033.78;5074319;28;20282;-80
2021/10/12 02:57:13;;;;;;;;;;;;;;;14.22;nan;100041.34;5069675;28;19924;-80
2021/10/12 02:59:40;;;;;;;;;;;;;;;14.19;nan;100041.41;5068935;28;20134;-79
2021/10/12 03:02:07;;;;;;;;;;;;;;;14.20;nan;100028.94;5094287;28;19924;-79
2021/10/12 03:04:35;;;;;;;;;;;;;;;14.10;nan;100021.47;5072502;28;19924;-79
2021/10/12 03:07:02;;;;;;;;;;;;;;;14.60;nan;100024.31;5084185;28;20418;-79
2021/10/12 03:09:29;;;;;;;;;;;;;;;14.00;nan;100019.59;5093923;28;19931;-79
2021/10/12 03:11:57;;;;;;;;;;;;;;;14.53;nan;100022.41;5076174;28;19930;-79
2021/10/12 03:14:24;;;;;;;;;;;;;;;13.87;nan;100019.38;5079791;28;19928;-79
2021/10/12 03:16:51;;;;;;;;;;;;;;;13.94;nan;100019.28;5075993;28;19924;-79
2021/10/12 03:19:18;;;;;;;;;;;;;;;14.07;nan;100013.91;5094101;28;19928;-79
2021/10/12 03:22:00;;;;;;;;;;;;;;;13.85;nan;100015.41;5093937;28;19924;-79
2021/10/12 03:24:27;;;;;;;;;;;;;;;13.77;nan;100011.09;5094132;28;19924;-79
2021/10/12 03:26:54;;;;;;;;;;;;;;;13.98;nan;100016.44;5075617;28;19924;-79
2021/10/12 03:29:22;;;;;;;;;;;;;;;13.74;nan;100017.56;5075724;28;19928;-79
2021/10/12 03:31:49;;;;;;;;;;;;;;;13.43;nan;100018.78;5093696;28;19931;-79
2021/10/12 03:34:16;;;;;;;;;;;;;;;13.94;nan;100015.69;5093664;28;19981;-79
2021/10/12 03:36:43;;;;;;;;;;;;;;;14.14;nan;100010.97;5075722;28;20299;-79
2021/10/12 03:39:10;;;;;;;;;;;;;;;13.97;nan;100012.03;5093780;28;19924;-79
2021/10/12 03:41:37;;;;;;;;;;;;;;;14.06;nan;100015.09;5093732;28;19968;-79
2021/10/12 03:44:05;;;;;;;;;;;;;;;13.98;nan;100013.63;5040873;28;19940;-79
2021/10/12 03:46:32;;;;;;;;;;;;;;;13.97;nan;100014.84;5073148;28;19924;-79
2021/10/12 03:48:59;;;;;;;;;;;;;;;13.94;nan;100001.63;5053739;28;20364;-79
2021/10/12 03:51:26;;;;;;;;;;;;;;;14.16;nan;100008.53;5037327;28;19929;-79
2021/10/12 03:53:53;;;;;;;;;;;;;;;14.11;nan;100003.38;5071477;28;19932;-79
2021/10/12 03:56:21;;;;;;;;;;;;;;;14.61;nan;100007.00;5073099;28;19924;-79
2021/10/12 03:58:48;;;;;;;;;;;;;;;14.08;nan;99999.44;5070004;28;19924;-79
2021/10/12 04:01:15;;;;;;;;;;;;;;;14.11;nan;100006.19;5086495;28;20299;-79
2021/10/12 04:03:45;;;;;;;;;;;;;;;13.92;nan;99995.63;5067939;28;19924;-79
2021/10/12 04:06:12;;;;;;;;;;;;;;;14.41;nan;99986.47;5075326;28;19935;-79
2021/10/12 04:08:39;;;;;;;;;;;;;;;13.96;nan;99977.53;5093210;28;19925;-79
2021/10/12 04:11:06;;;;;;;;;;;;;;;13.97;nan;99984.72;5044179;28;19934;-79
2021/10/12 04:13:34;;;;;;;;;;;;;;;13.83;nan;99972.91;5092995;28;19969;-79
2021/10/12 04:16:01;;;;;;;;;;;;;;;13.89;nan;99963.56;5060863;28;19924;-79
2021/10/12 04:18:28;;;;;;;;;;;;;;;14.01;nan;99974.22;5075161;28;19932;-79
2021/10/12 04:20:55;;;;;;;;;;;;;;;14.16;nan;99966.38;5074512;28;19931;-79
2021/10/12 04:23:22;;;;;;;;;;;;;;;14.21;nan;99971.50;5061620;28;19924;-79
2021/10/12 04:25:49;;;;;;;;;;;;;;;14.13;nan;99959.56;5079948;28;19928;-79
2021/10/12 04:28:17;;;;;;;;;;;;;;;14.02;nan;99950.53;5073771;28;19978;-79
2021/10/12 04:30:45;;;;;;;;;;;;;;;13.86;nan;99941.94;5074901;28;20066;-79
2021/10/12 04:33:14;;;;;;;;;;;;;;;14.12;nan;99949.56;5092524;28;19924;-79
2021/10/12 04:35:41;;;;;;;;;;;;;;;13.91;nan;99940.69;5058201;28;19924;-79
2021/10/12 04:38:09;;;;;;;;;;;;;;;13.91;nan;99946.28;5058029;28;19930;-79
2021/10/12 04:40:36;;;;;;;;;;;;;;;13.91;nan;99943.47;5074773;28;19980;-79
2021/10/12 04:43:05;;;;;;;;;;;;;;;13.68;nan;99941.41;5092393;28;19924;-79
2021/10/12 04:45:33;;;;;;;;;;;;;;;13.73;nan;99945.75;5092620;28;19984;-79
2021/10/12 04:48:03;;;;;;;;;;;;;;;13.49;nan;99947.72;5092586;28;19924;-79
2021/10/12 04:50:31;;;;;;;;;;;;;;;13.79;nan;99921.59;5092546;28;20398;-79
2021/10/12 04:52:59;;;;;;;;;;;;;;;13.52;nan;99946.06;5092568;28;19924;-79
2021/10/12 04:55:28;;;;;;;;;;;;;;;13.48;nan;99946.13;5074364;28;19924;-79
2021/10/12 04:57:55;;;;;;;;;;;;;;;13.63;nan;99918.66;5092255;28;19924;-79
2021/10/12 05:00:22;;;;;;;;;;;;;;;13.53;nan;99930.81;5092283;28;19924;-79
2021/10/12 05:02:49;;;;;;;;;;;;;;;13.51;nan;99930.47;5074652;28;19924;-79
2021/10/12 05:05:16;;;;;;;;;;;;;;;13.83;nan;99930.75;5078816;28;20314;-79
2021/10/12 05:07:44;;;;;;;;;;;;;;;14.01;nan;99926.47;5096434;28;19981;-79
2021/10/12 05:10:11;;;;;;;;;;;;;;;13.73;nan;99917.69;5096413;28;20406;-79
2021/10/12 05:12:38;;;;;;;;;;;;;;;13.82;nan;99929.19;5096056;28;19930;-79
2021/10/12 05:15:06;;;;;;;;;;;;;;;13.83;nan;99928.75;5061969;28;19930;-79
2021/10/12 05:17:39;;;;;;;;;;;;;;;13.96;nan;99924.16;5096220;28;19924;-79
2021/10/12 05:20:06;;;;;;;;;;;;;;;13.74;nan;99927.69;5078623;28;19931;-79
2021/10/12 05:22:34;;;;;;;;;;;;;;;13.83;nan;99927.94;5096251;28;19924;-79
2021/10/12 05:25:01;;;;;;;;;;;;;;;13.66;nan;99918.56;5050355;28;19924;-79
2021/10/12 05:27:28;;;;;;;;;;;;;;;13.89;nan;99921.44;5061791;28;19931;-79
2021/10/12 05:29:55;;;;;;;;;;;;;;;13.57;nan;99917.53;5095905;28;19930;-79
2021/10/12 05:32:22;;;;;;;;;;;;;;;13.93;nan;99927.00;5096182;28;19924;-79
2021/10/12 05:34:50;;;;;;;;;;;;;;;13.99;nan;99914.06;5077998;28;20288;-79
2021/10/12 05:37:17;;;;;;;;;;;;;;;13.92;nan;99914.16;5068898;28;19939;-79
2021/10/12 05:39:45;;;;;;;;;;;;;;;13.77;nan;99910.78;5090802;28;20383;-79
2021/10/12 05:42:12;;;;;;;;;;;;;;;13.93;nan;99924.19;5084502;28;19930;-79
2021/10/12 05:44:39;;;;;;;;;;;;;;;13.99;nan;99936.53;5081549;28;19935;-79
2021/10/12 05:47:06;;;;;;;;;;;;;;;13.86;nan;99932.72;5060087;28;19924;-79
2021/10/12 05:49:36;;;;;;;;;;;;;;;14.06;nan;99930.78;5075829;28;19932;-79
2021/10/12 05:52:04;;;;;;;;;;;;;;;13.82;nan;99937.59;5075890;28;19969;-77
2021/10/12 05:54:33;;;;;;;;;;;;;;;14.09;nan;99941.19;5075158;28;19924;-79
2021/10/12 05:57:06;;;;;;;;;;;;;;;13.73;nan;99934.53;5081220;28;19928;-78
2021/10/12 05:59:34;;;;;;;;;;;;;;;13.57;nan;99929.53;5087237;28;20085;-78
2021/10/12 06:02:02;;;;;;;;;;;;;;;13.62;nan;99925.47;5068977;28;20341;-79
2021/10/12 06:04:30;;;;;;;;;;;;;;;13.72;nan;99950.59;5052120;28;20334;-80
2021/10/12 06:07:01;;;;;;;;;;;;;;;13.78;nan;99937.66;5057213;28;20391;-80
2021/10/12 06:09:29;;;;;;;;;;;;;;;13.67;nan;99939.03;5067932;28;20239;-78
2021/10/12 06:12:00;;;;;;;;;;;;;;;13.82;nan;99944.03;5072341;28;19991;-79
2021/10/12 06:14:28;;;;;;;;;;;;;;;13.91;nan;99940.69;5059430;28;19934;-79
2021/10/12 06:16:55;;;;;;;;;;;;;;;14.21;nan;99932.16;5071965;28;19924;-81
2021/10/12 06:19:23;;;;;;;;;;;;;;;13.77;nan;99930.44;5042088;28;19929;-81
2021/10/12 06:21:50;;;;;;;;;;;;;;;14.09;nan;99938.38;5059237;28;19970;-80
2021/10/12 06:24:17;;;;;;;;;;;;;;;13.91;nan;99929.44;5078485;28;20290;-81
2021/10/12 06:26:44;;;;;;;;;;;;;;;13.92;nan;99945.06;5087231;28;20291;-81
2021/10/12 06:29:12;;;;;;;;;;;;;;;14.50;nan;99938.91;5088568;28;19928;-81
2021/10/12 06:31:39;;;;;;;;;;;;;;;14.48;nan;99935.72;5080435;28;19947;-81
2021/10/12 06:34:08;;;;;;;;;;;;;;;14.06;nan;99937.22;5083464;28;19934;-80
2021/10/12 06:36:36;;;;;;;;;;;;;;;13.70;nan;99930.56;5060852;28;19928;-80
2021/10/12 06:39:04;;;;;;;;;;;;;;;14.05;nan;99937.66;5057215;28;20008;-80
2021/10/12 06:41:31;;;;;;;;;;;;;;;13.89;nan;99937.47;5088646;28;20297;-79
2021/10/12 06:44:07;;;;;;;;;;;;;;;14.44;nan;99932.19;5065299;28;20139;-81
2021/10/12 06:46:34;;;;;;;;;;;;;;;14.34;nan;99933.94;5065878;28;20004;-81
2021/10/12 06:49:02;;;;;;;;;;;;;;;14.22;nan;99940.16;5079473;28;20349;-81
2021/10/12 06:51:29;;;;;;;;;;;;;;;14.24;nan;99948.19;5050715;28;19977;-80
2021/10/12 06:54:11;;;;;;;;;;;;;;;14.44;nan;99943.44;5063769;28;19931;-81
2021/10/12 06:56:38;;;;;;;;;;;;;;;14.49;nan;99942.94;5079659;28;19928;-81
2021/10/12 06:59:05;;;;;;;;;;;;;;;14.45;nan;99945.81;5087114;28;19936;-81
2021/10/12 07:01:32;;;;;;;;;;;;;;;14.26;nan;99951.38;5071003;28;19930;-81
2021/10/12 07:03:59;;;;;;;;;;;;;;;14.54;nan;99955.72;5080163;28;19970;-81
2021/10/12 07:06:26;;;;;;;;;;;;;;;14.82;nan;99941.94;5059723;28;19935;-81
2021/10/12 07:08:53;;;;;;;;;;;;;;;14.47;nan;99951.00;5062681;28;19924;-81
2021/10/12 07:11:20;;;;;;;;;;;;;;;14.51;nan;99948.91;5079258;28;20011;-81
2021/10/12 07:13:49;;;;;;;;;;;;;;;14.43;nan;99953.88;5064561;28;19924;-83
2021/10/12 07:16:20;;;;;;;;;;;;;;;14.44;nan;99957.50;5057651;28;19924;-81
2021/10/12 07:18:48;;;;;;;;;;;;;;;14.47;nan;99965.06;5094210;28;20390;-81
2021/10/12 07:21:15;;;;;;;;;;;;;;;14.87;nan;99963.94;5079532;28;20397;-81
2021/10/12 07:23:42;;;;;;;;;;;;;;;14.88;nan;99959.91;5066677;28;20163;-81
2021/10/12 07:26:10;;;;;;;;;;;;;;;14.63;nan;99970.03;5055227;28;20302;-81
2021/10/12 07:28:37;;;;;;;;;;;;;;;14.84;nan;99969.63;5056160;28;19924;-81
2021/10/12 07:31:05;;;;;;;;;;;;;;;14.76;nan;99979.41;5055811;28;19931;-81
2021/10/12 07:33:33;;;;;;;;;;;;;;;14.81;nan;99976.91;5031957;28;19924;-81
2021/10/12 07:36:00;;;;;;;;;;;;;;;15.01;nan;99969.28;5080956;28;19931;-81
2021/10/12 07:38:27;;;;;;;;;;;;;;;14.83;nan;99974.44;5069789;28;19925;-81
2021/10/12 07:40:54;;;;;;;;;;;;;;;14.71;nan;99977.13;5073229;28;19924;-81
2021/10/12 07:43:22;;;;;;;;;;;;;;;14.96;nan;99972.63;5076428;28;19924;-81
2021/10/12 07:45:49;;;;;;;;;;;;;;;14.89;nan;99967.09;5084276;28;19929;-81
2021/10/12 07:48:17;;;;;;;;;;;;;;;15.09;nan;99967.13;5070982;28;19924;-81
2021/10/12 07:50:45;;;;;;;;;;;;;;;14.95;nan;99961.78;5075134;28;20379;-81
2021/10/12 07:53:12;;;;;;;;;;;;;;;15.03;nan;99966.84;5044894;28;19931;-81
2021/10/12 07:55:48;;;;;;;;;;;;;;;15.14;nan;99949.72;5069230;28;20307;-81
2021/10/12 07:58:15;;;;;;;;;;;;;;;15.39;nan;99942.38;5055622;28;19931;-81
2021/10/12 08:00:43;;;;;;;;;;;;;;;15.05;nan;99953.13;5063081;28;19924;-81
2021/10/12 08:03:11;;;;;;;;;;;;;;;15.23;nan;99953.56;5063801;28;19924;-81
2021/10/12 08:05:38;;;;;;;;;;;;;;;15.20;nan;99954.44;5075053;28;20295;-81
2021/10/12 08:08:06;;;;;;;;;;;;;;;15.22;nan;99949.13;5075205;28;19924;-81
2021/10/12 08:10:34;;;;;;;;;;;;;;;15.30;nan;99953.41;5092979;28;19928;-81
2021/10/12 08:13:04;;;;;;;;;;;;;;;15.13;nan;99937.66;5078882;28;20022;-81
2021/10/12 08:15:32;;;;;;;;;;;;;;;15.09;nan;99939.78;5081071;28;19924;-81
2021/10/12 08:17:59;;;;;;;;;;;;;;;14.99;nan;99943.59;5055251;28;19930;-81
2021/10/12 08:20:27;;;;;;;;;;;;;;;14.97;nan;99956.50;5038506;28;19925;-81
2021/10/12 08:22:54;;;;;;;;;;;;;;;15.41;nan;99948.38;5075293;28;19929;-81
2021/10/12 08:25:22;;;;;;;;;;;;;;;15.16;nan;99945.25;5092912;28;19924;-81
2021/10/12 08:27:49;;;;;;;;;;;;;;;15.13;nan;99957.38;5058335;28;19928;-81
2021/10/12 08:30:16;;;;;;;;;;;;;;;14.94;nan;99968.63;5058154;28;20382;-81
2021/10/12 08:32:44;;;;;;;;;;;;;;;14.89;nan;99967.09;5093015;28;20413;-81
2021/10/12 08:35:11;;;;;;;;;;;;;;;14.88;nan;99971.16;5092510;28;19924;-81
2021/10/12 08:37:40;;;;;;;;;;;;;;;14.88;nan;99982.41;5074540;28;19977;-81
2021/10/12 08:40:13;;;;;;;;;;;;;;;15.05;nan;99991.72;5057653;28;19946;-81
2021/10/12 08:42:47;;;;;;;;;;;;;;;14.86;nan;99981.25;5063498;28;19924;-81
2021/10/12 08:45:20;;;;;;;;;;;;;;;15.01;nan;99968.50;5074002;28;20310;-81
2021/10/12 08:47:48;;;;;;;;;;;;;;;15.24;nan;99969.22;5074880;28;19924;-81
2021/10/12 08:50:19;;;;;;;;;;;;;;;14.98;nan;99975.00;5092288;28;19930;-81
2021/10/12 08:52:46;;;;;;;;;;;;;;;15.11;nan;99968.28;5047733;28;19970;-80
2021/10/12 08:55:14;;;;;;;;;;;;;;;15.54;nan;99969.00;5040974;28;19932;-81
2021/10/12 08:57:44;;;;;;;;;;;;;;;15.27;nan;99965.53;5065456;28;19924;-81
2021/10/12 09:00:18;;;;;;;;;;;;;;;15.35;nan;99961.34;5087957;28;20413;-81
2021/10/12 09:02:56;;;;;;;;;;;;;;;15.22;nan;99956.81;5073071;28;20342;-81
2021/10/12 09:05:25;;;;;;;;;;;;;;;15.48;nan;99956.66;5085112;28;19931;-81
2021/10/12 09:07:52;;;;;;;;;;;;;;;15.36;nan;99957.31;5077918;28;19924;-81
2021/10/12 09:10:22;;;;;;;;;;;;;;;15.85;nan;99961.88;5074421;28;19924;-81
2021/10/12 09:12:49;;;;;;;;;;;;;;;15.78;nan;99962.03;5088603;28;19932;-81
2021/10/12 09:15:17;;;;;;;;;;;;;;;15.35;nan;99961.34;5082388;28;19924;-81
2021/10/12 09:17:52;;;;;;;;;;;;;;;15.60;nan;99967.25;5075703;28;19925;-81
2021/10/12 09:20:22;;;;;;;;;;;;;;;15.09;nan;99965.09;5064066;28;19938;-81
2021/10/12 09:23:22;;;;;;;;;;;;;;;15.21;nan;99970.09;5090030;28;19938;-81
2021/10/12 09:25:52;;;;;;;;;;;;;;;14.89;nan;99963.50;5019740;28;19924;-81
2021/10/12 09:28:22;;;;;;;;;;;;;;;15.87;nan;99962.22;5067741;28;19925;-81
2021/10/12 09:30:52;;;;;;;;;;;;;;;16.08;nan;99956.06;5066559;28;20280;-81
2021/10/12 09:33:20;;;;;;;;;;;;;;;16.02;nan;99952.19;5091908;28;20295;-81
2021/10/12 09:35:48;;;;;;;;;;;;;;;16.15;nan;99955.91;5074143;28;19932;-81
2021/10/12 09:38:15;;;;;;;;;;;;;;;16.07;nan;99954.50;5089231;28;19925;-81
2021/10/12 09:40:43;;;;;;;;;;;;;;;15.87;nan;99953.75;5063582;28;19973;-81
2021/10/12 09:43:15;;;;;;;;;;;;;;;16.18;nan;99957.06;5073992;28;20294;-81
2021/10/12 09:45:43;;;;;;;;;;;;;;;15.87;nan;99956.56;5092142;28;19927;-81
2021/10/12 09:48:29;;;;;;;;;;;;;;;15.46;nan;99956.31;5057208;28;19930;-81
2021/10/12 09:51:06;;;;;;;;;;;;;;;15.75;nan;99957.25;5077450;28;19924;-82
2021/10/12 09:53:33;;;;;;;;;;;;;;;16.04;nan;99966.66;5061239;28;19928;-81
2021/10/12 09:56:01;;;;;;;;;;;;;;;16.30;nan;99964.81;5061257;28;19927;-81
2021/10/12 09:58:34;;;;;;;;;;;;;;;16.15;nan;99960.75;5062182;28;20349;-81
2021/10/12 10:01:03;;;;;;;;;;;;;;;15.76;nan;99961.69;5079075;28;19929;-81
2021/10/12 10:03:31;;;;;;;;;;;;;;;16.39;nan;99967.03;5086670;28;19930;-81
2021/10/12 10:06:02;;;;;;;;;;;;;;;16.27;nan;99959.28;5077416;28;19931;-81
2021/10/12 10:08:30;;;;;;;;;;;;;;;16.27;nan;99953.63;5096122;28;19977;-81
2021/10/12 10:11:06;;;;;;;;;;;;;;;16.03;nan;99956.63;5078715;28;19931;-81
2021/10/12 10:13:34;;;;;;;;;;;;;;;16.57;nan;99953.28;5077563;28;19924;-81
2021/10/12 10:16:02;;;;;;;;;;;;;;;16.84;nan;99940.44;5095111;28;19935;-81
2021/10/12 10:18:31;;;;;;;;;;;;;;;16.36;nan;99948.94;5095296;28;19928;-81
2021/10/12 10:21:00;;;;;;;;;;;;;;;16.75;nan;99956.44;5062979;28;19931;-81
2021/10/12 10:23:46;;;;;;;;;;;;;;;16.81;nan;99949.03;5053431;28;19924;-81
2021/10/12 10:26:34;;;;;;;;;;;;;;;16.64;nan;99941.81;5057503;28;19925;-81
2021/10/12 10:29:21;;;;;;;;;;;;;;;16.56;nan;99943.22;5057054;28;19925;-81
2021/10/12 10:31:55;;;;;;;;;;;;;;;16.53;nan;99939.28;5044964;28;20303;-81
2021/10/12 10:34:26;;;;;;;;;;;;;;;16.98;nan;99937.22;5057069;28;19925;-81
2021/10/12 10:37:12;;;;;;;;;;;;;;;17.14;nan;99927.91;5070853;28;19924;-81
2021/10/12 10:39:42;;;;;;;;;;;;;;;16.96;nan;99930.44;5070747;28;19938;-81
2021/10/12 10:42:29;;;;;;;;;;;;;;;16.27;nan;99925.44;5081911;28;19924;-81
2021/10/12 10:45:05;;;;;;;;;;;;;;;16.63;nan;99931.78;5062273;28;19924;-81
2021/10/12 10:47:42;;;;;;;;;;;;;;;16.46;nan;99935.84;5076816;28;19931;-81
2021/10/12 10:50:26;;;;;;;;;;;;;;;16.69;nan;99935.63;5073585;28;19974;-81
2021/10/12 10:52:57;;;;;;;;;;;;;;;16.49;nan;99937.78;5086074;28;19939;-81
2021/10/12 10:55:31;;;;;;;;;;;;;;;16.69;nan;99941.28;5080629;28;19924;-81
2021/10/12 10:58:08;;;;;;;;;;;;;;;16.58;nan;99935.13;5094762;28;19928;-81
2021/10/12 11:00:41;;;;;;;;;;;;;;;16.43;nan;99931.06;5061557;28;19924;-81
2021/10/12 11:03:09;;;;;;;;;;;;;;;16.50;nan;99933.72;5076554;28;19924;-81
2021/10/12 11:05:38;;;;;;;;;;;;;;;16.61;nan;99939.88;5062122;28;20296;-81
2021/10/12 11:08:06;;;;;;;;;;;;;;;16.35;nan;99938.09;5074912;28;19924;-81
2021/10/12 11:10:36;;;;;;;;;;;;;;;16.46;nan;99935.84;5082276;28;20311;-81
2021/10/12 11:13:03;;;;;;;;;;;;;;;16.36;nan;99936.91;5079951;28;20325;-81
2021/10/12 11:15:30;;;;;;;;;;;;;;;16.31;nan;99943.06;5058469;28;19982;-81
2021/10/12 11:18:04;;;;;;;;;;;;;;;16.25;nan;99934.34;5054739;28;19925;-80
2021/10/12 11:20:39;;;;;;;;;;;;;;;16.59;nan;99937.50;5084129;28;20401;-81
2021/10/12 11:23:06;;;;;;;;;;;;;;;16.24;nan;99938.38;5078185;28;20236;-81
2021/10/12 11:25:37;;;;;;;;;;;;;;;16.49;nan;99932.94;5041634;28;19930;-81
2021/10/12 11:28:13;;;;;;;;;;;;;;;15.98;nan;99930.97;5039344;28;19924;-81
2021/10/12 11:30:40;;;;;;;;;;;;;;;16.53;nan;99924.38;5065524;28;19957;-81
2021/10/12 11:33:08;;;;;;;;;;;;;;;17.10;nan;99915.94;5070717;28;20375;-81
2021/10/12 11:35:39;;;;;;;;;;;;;;;17.36;nan;99917.56;5037192;28;20427;-81
2021/10/12 11:38:07;;;;;;;;;;;;;;;17.28;nan;99916.22;5067607;28;20341;-81
2021/10/12 11:40:35;;;;;;;;;;;;;;;17.20;nan;99923.31;5080032;28;20315;-81
2021/10/12 11:43:04;;;;;;;;;;;;;;;16.75;nan;99922.56;5091478;28;19924;-81
2021/10/12 11:45:32;;;;;;;;;;;;;;;16.97;nan;99923.56;5073882;28;19930;-81
2021/10/12 11:47:59;;;;;;;;;;;;;;;16.94;nan;99924.44;5080024;28;19947;-81
2021/10/12 11:50:26;;;;;;;;;;;;;;;16.71;nan;99927.50;5069190;28;19924;-81
2021/10/12 11:52:57;;;;;;;;;;;;;;;16.41;nan;99933.53;5056224;28;19925;-81
2021/10/12 11:55:26;;;;;;;;;;;;;;;16.36;nan;99928.44;5073714;28;19954;-80
2021/10/12 11:57:54;;;;;;;;;;;;;;;16.20;nan;99932.03;5064751;28;19928;-81
2021/10/12 12:00:40;;;;;;;;;;;;;;;16.68;nan;99928.38;5073046;28;20399;-81
2021/10/12 12:03:14;;;;;;;;;;;;;;;17.23;nan;99919.56;5068914;28;20006;-81
2021/10/12 12:05:48;;;;;;;;;;;;;;;16.69;nan;99927.94;5077988;28;19935;-81
2021/10/12 12:08:16;;;;;;;;;;;;;;;16.49;nan;99926.50;5081464;28;20405;-81
2021/10/12 12:10:43;;;;;;;;;;;;;;;16.65;nan;99934.91;5078648;28;19970;-81
2021/10/12 12:13:12;;;;;;;;;;;;;;;16.58;nan;99919.00;5092977;28;19928;-81
2021/10/12 12:15:42;;;;;;;;;;;;;;;16.87;nan;99924.66;5093174;28;19928;-81
2021/10/12 12:18:11;;;;;;;;;;;;;;;16.07;nan;99922.69;5087220;28;19924;-81
2021/10/12 12:20:48;;;;;;;;;;;;;;;16.31;nan;99920.50;5055037;28;19985;-81
2021/10/12 12:23:32;;;;;;;;;;;;;;;16.48;nan;99922.88;5060628;28;19928;-81
2021/10/12 12:26:00;;;;;;;;;;;;;;;16.62;nan;99919.69;5092573;28;19977;-81
2021/10/12 12:28:28;;;;;;;;;;;;;;;16.84;nan;99914.25;5093038;28;19927;-81
2021/10/12 12:30:55;;;;;;;;;;;;;;;16.89;nan;99905.25;5074929;28;19924;-81
2021/10/12 12:33:23;;;;;;;;;;;;;;;16.63;nan;99909.19;5055710;28;20330;-81
2021/10/12 12:35:51;;;;;;;;;;;;;;;16.53;nan;99913.06;5055034;28;19925;-81
2021/10/12 12:38:23;;;;;;;;;;;;;;;16.52;nan;99905.88;5090102;28;20436;-81
2021/10/12 12:40:51;;;;;;;;;;;;;;;16.87;nan;99902.06;5082280;28;19928;-81
2021/10/12 12:43:20;;;;;;;;;;;;;;;17.26;nan;99907.38;5071555;28;20200;-81
2021/10/12 12:46:05;;;;;;;;;;;;;;;17.54;nan;99909.38;5065831;28;19978;-82
2021/10/12 12:48:32;;;;;;;;;;;;;;;17.02;nan;99903.25;5040368;28;19932;-81
2021/10/12 12:51:01;;;;;;;;;;;;;;;17.06;nan;99909.59;5047953;28;19924;-81
2021/10/12 12:53:47;;;;;;;;;;;;;;;17.30;nan;99913.72;5060270;28;19928;-81
2021/10/12 12:56:19;;;;;;;;;;;;;;;17.20;nan;99900.72;5081058;28;19924;-81
2021/10/12 12:58:47;;;;;;;;;;;;;;;17.27;nan;99903.31;5086394;28;19924;-81
2021/10/12 13:01:18;;;;;;;;;;;;;;;17.14;nan;99905.31;5082428;28;19924;-81
2021/10/12 13:03:53;;;;;;;;;;;;;;;16.98;nan;99909.00;5079057;28;19977;-81
2021/10/12 13:06:21;;;;;;;;;;;;;;;16.77;nan;99908.78;5065302;28;19950;-81
2021/10/12 13:08:54;;;;;;;;;;;;;;;16.16;nan;99912.38;5062015;28;19931;-81
2021/10/12 13:11:26;;;;;;;;;;;;;;;15.93;nan;99917.41;5073839;28;20405;-80
2021/10/12 13:13:53;;;;;;;;;;;;;;;15.97;nan;99918.09;5079684;28;19931;-81
2021/10/12 13:16:21;;;;;;;;;;;;;;;16.61;nan;99922.94;5072104;28;19928;-81